createdAt,value
2018-01-11T00:01:10.041Z,12.57
2018-01-11T00:03:37.965Z,12.60
2018-01-11T00:06:06.027Z,12.93
2018-01-11T00:08:34.118Z,14.93
2018-01-11T00:11:02.855Z,13.13
2018-01-11T00:13:30.771Z,12.32
2018-01-11T00:15:59.776Z,13.50
2018-01-11T00:18:27.681Z,12.23
2018-01-11T00:20:55.613Z,13.27
2018-01-11T00:23:23.548Z,12.70
2018-01-11T00:25:51.480Z,13.48
2018-01-11T00:28:19.421Z,13.50
2018-01-11T00:30:47.328Z,13.45
2018-01-11T00:33:15.266Z,13.02
2018-01-11T00:35:43.220Z,13.23
2018-01-11T00:38:11.125Z,14.73
2018-01-11T00:40:39.035Z,13.43
2018-01-11T00:43:06.969Z,12.57
2018-01-11T00:45:34.901Z,13.50
2018-01-11T00:48:02.802Z,13.73
2018-01-11T00:50:30.740Z,14.27
2018-01-11T00:52:58.677Z,12.32
2018-01-11T00:55:26.567Z,13.75
2018-01-11T00:57:54.498Z,12.73
2018-01-11T01:00:22.414Z,14.13
2018-01-11T01:02:50.329Z,13.80
2018-01-11T01:05:18.261Z,14.57
2018-01-11T01:07:46.168Z,14.50
2018-01-11T01:10:14.070Z,13.50
2018-01-11T01:12:42.005Z,14.75
2018-01-11T01:15:09.924Z,14.80
2018-01-11T01:17:37.854Z,14.40
2018-01-11T01:20:05.772Z,15.55
2018-01-11T01:22:33.688Z,15.18
2018-01-11T01:25:01.601Z,14.73
2018-01-11T01:27:29.533Z,14.50
2018-01-11T01:29:57.446Z,15.27
2018-01-11T01:32:25.347Z,14.43
2018-01-11T01:34:53.269Z,14.00
2018-01-11T01:37:21.162Z,13.88
2018-01-11T01:39:49.114Z,15.68
2018-01-11T01:42:17.048Z,13.38
2018-01-11T01:44:44.960Z,15.80
2018-01-11T01:47:12.900Z,14.65
2018-01-11T01:49:40.829Z,14.45
2018-01-11T01:52:08.736Z,16.90
2018-01-11T01:54:36.639Z,17.37
2018-01-11T01:57:04.577Z,17.48
2018-01-11T01:59:32.498Z,15.10
2018-01-11T02:02:00.404Z,17.42
2018-01-11T02:04:28.357Z,16.55
2018-01-11T02:06:56.301Z,16.98
2018-01-11T02:09:24.196Z,16.08
2018-01-11T02:11:52.141Z,16.25
2018-01-11T02:14:20.039Z,16.17
2018-01-11T02:16:47.958Z,16.52
2018-01-11T02:19:15.878Z,16.85
2018-01-11T02:21:43.774Z,16.00
2018-01-11T02:24:11.696Z,15.63
2018-01-11T02:26:39.615Z,17.73
2018-01-11T02:29:07.529Z,15.55
2018-01-11T02:31:35.442Z,16.98
2018-01-11T02:34:03.363Z,14.87
2018-01-11T02:36:31.297Z,16.60
2018-01-11T02:38:59.220Z,16.25
2018-01-11T02:41:27.143Z,15.10
2018-01-11T02:43:55.045Z,16.40
2018-01-11T02:46:22.969Z,15.55
2018-01-11T02:48:50.896Z,15.75
2018-01-11T02:51:19.940Z,16.33
2018-01-11T02:53:47.830Z,17.45
2018-01-11T02:56:15.743Z,16.80
2018-01-11T02:58:43.668Z,16.87
2018-01-11T03:01:11.609Z,17.30
2018-01-11T03:03:39.549Z,17.02
2018-01-11T03:06:07.468Z,16.77
2018-01-11T03:08:35.376Z,17.30
2018-01-11T03:11:03.311Z,17.37
2018-01-11T03:13:31.207Z,16.17
2018-01-11T03:15:59.120Z,15.30
2018-01-11T03:18:27.056Z,16.08
2018-01-11T03:20:54.958Z,16.40
2018-01-11T03:23:22.879Z,16.67
2018-01-11T03:25:50.824Z,15.25
2018-01-11T03:28:18.738Z,15.75
2018-01-11T03:30:46.648Z,15.93
2018-01-11T03:33:14.606Z,17.33
2018-01-11T03:35:42.518Z,16.40
2018-01-11T03:38:10.433Z,15.50
2018-01-11T03:40:38.400Z,15.77
2018-01-11T03:43:06.326Z,16.27
2018-01-11T03:45:34.228Z,16.27
2018-01-11T03:48:02.159Z,15.20
2018-01-11T03:50:30.086Z,14.18
2018-01-11T03:52:58.024Z,14.07
2018-01-11T03:55:25.924Z,15.75
2018-01-11T03:57:53.834Z,15.60
2018-01-11T04:00:21.734Z,15.18
2018-01-11T04:02:49.668Z,14.10
2018-01-11T04:05:17.566Z,13.35
2018-01-11T04:07:45.463Z,15.50
2018-01-11T04:10:14.505Z,14.73
2018-01-11T04:12:42.427Z,13.32
2018-01-11T04:15:10.384Z,13.65
2018-01-11T04:17:38.315Z,13.30
2018-01-11T04:20:06.232Z,14.23
2018-01-11T04:22:34.130Z,15.07
2018-01-11T04:25:02.077Z,15.07
2018-01-11T04:27:29.997Z,14.95
2018-01-11T04:29:58.943Z,14.25
2018-01-11T04:32:26.872Z,15.07
2018-01-11T04:34:54.800Z,14.63
2018-01-11T04:37:22.728Z,14.90
2018-01-11T04:39:50.647Z,14.50
2018-01-11T04:42:18.573Z,14.05
2018-01-11T04:44:46.485Z,15.93
2018-01-11T04:47:14.422Z,13.70
2018-01-11T04:49:42.333Z,14.75
2018-01-11T04:52:10.230Z,15.20
2018-01-11T04:54:38.151Z,13.48
2018-01-11T04:57:06.047Z,15.95
2018-01-11T04:59:33.961Z,14.60
2018-01-11T05:02:01.875Z,14.50
2018-01-11T05:04:29.813Z,14.40
2018-01-11T05:06:57.754Z,13.43
2018-01-11T05:09:25.663Z,15.10
2018-01-11T05:11:53.581Z,14.73
2018-01-11T05:14:21.520Z,15.38
2018-01-11T05:16:49.448Z,15.20
2018-01-11T05:19:17.367Z,13.48
2018-01-11T05:21:45.275Z,14.68
2018-01-11T05:24:14.297Z,13.55
2018-01-11T05:26:42.199Z,15.00
2018-01-11T05:29:10.121Z,15.15
2018-01-11T05:31:38.014Z,12.50
2018-01-11T05:34:05.937Z,13.55
2018-01-11T05:36:33.861Z,12.27
2018-01-11T05:39:01.787Z,11.38
2018-01-11T05:41:29.711Z,13.90
2018-01-11T05:43:57.636Z,12.37
2018-01-11T05:46:25.555Z,11.02
2018-01-11T05:48:53.462Z,13.95
2018-01-11T05:51:21.383Z,13.52
2018-01-11T05:53:49.286Z,12.55
2018-01-11T05:56:17.264Z,14.25
2018-01-11T05:58:45.159Z,16.58
2018-01-11T06:01:13.081Z,14.10
2018-01-11T06:03:41.004Z,13.77
2018-01-11T06:06:08.907Z,15.65
2018-01-11T06:08:36.823Z,14.07
2018-01-11T06:11:04.772Z,14.05
2018-01-11T06:13:32.696Z,13.75
2018-01-11T06:16:00.609Z,14.25
2018-01-11T06:18:28.530Z,14.48
2018-01-11T06:20:56.444Z,14.07
2018-01-11T06:23:24.381Z,14.55
2018-01-11T06:25:52.275Z,13.55
2018-01-11T06:28:20.201Z,14.45
2018-01-11T06:30:48.130Z,13.75
2018-01-11T06:33:16.094Z,14.02
2018-01-11T06:35:43.981Z,13.62
2018-01-11T06:38:11.905Z,13.10
2018-01-11T06:40:39.840Z,12.13
2018-01-11T06:43:07.736Z,12.02
2018-01-11T06:45:35.658Z,12.20
2018-01-11T06:48:03.549Z,12.13
2018-01-11T06:50:31.464Z,12.40
2018-01-11T06:52:59.413Z,12.20
2018-01-11T06:55:27.298Z,12.75
2018-01-11T06:57:55.220Z,11.70
2018-01-11T07:00:23.152Z,12.60
2018-01-11T07:02:51.071Z,11.73
2018-01-11T07:05:18.993Z,13.20
2018-01-11T07:07:46.917Z,12.93
2018-01-11T07:10:15.856Z,12.27
2018-01-11T07:12:44.770Z,13.68
2018-01-11T07:15:13.762Z,12.32
2018-01-11T07:17:41.664Z,13.45
2018-01-11T07:20:10.694Z,13.38
2018-01-11T07:22:38.608Z,12.13
2018-01-11T07:25:06.519Z,12.05
2018-01-11T07:27:34.427Z,12.37
2018-01-11T07:30:02.360Z,12.05
2018-01-11T07:32:30.286Z,11.00
2018-01-11T07:34:58.187Z,11.75
2018-01-11T07:37:26.117Z,12.80
2018-01-11T07:39:54.010Z,13.27
2018-01-11T07:42:21.916Z,12.95
2018-01-11T07:44:49.831Z,11.55
2018-01-11T07:47:17.739Z,11.18
2018-01-11T07:49:45.634Z,13.05
2018-01-11T07:52:13.557Z,11.23
2018-01-11T07:54:41.498Z,12.50
2018-01-11T07:57:09.437Z,11.93
2018-01-11T07:59:37.377Z,11.98
2018-01-11T08:02:05.287Z,11.70
2018-01-11T08:04:33.190Z,12.23
2018-01-11T08:07:01.109Z,11.35
2018-01-11T08:09:29.605Z,12.98
2018-01-11T08:11:58.236Z,10.77
2018-01-11T08:14:26.297Z,11.57
2018-01-11T08:16:54.219Z,11.65
2018-01-11T08:19:22.137Z,12.40
2018-01-11T08:21:50.040Z,10.82
2018-01-11T08:24:17.974Z,11.15
2018-01-11T08:26:45.867Z,12.27
2018-01-11T08:29:13.780Z,11.05
2018-01-11T08:31:41.710Z,12.70
2018-01-11T08:34:09.612Z,13.68
2018-01-11T08:36:37.523Z,14.68
2018-01-11T08:39:05.411Z,15.35
2018-01-11T08:41:33.321Z,16.17
2018-01-11T08:44:01.237Z,18.77
2018-01-11T08:46:29.928Z,17.85
2018-01-11T08:48:58.056Z,17.95
2018-01-11T08:51:26.356Z,15.73
2018-01-11T08:53:54.340Z,15.32
2018-01-11T08:56:22.480Z,15.27
2018-01-11T08:58:50.666Z,14.73
2018-01-11T09:01:18.912Z,17.27
2018-01-11T09:03:47.187Z,15.68
2018-01-11T09:06:15.139Z,17.95
2018-01-11T09:08:43.060Z,17.35
2018-01-11T09:11:10.971Z,16.80
2018-01-11T09:13:38.887Z,15.88
2018-01-11T09:16:06.816Z,16.62
2018-01-11T09:18:34.747Z,15.95
2018-01-11T09:21:02.664Z,16.83
2018-01-11T09:23:30.567Z,16.92
2018-01-11T09:25:58.479Z,16.77
2018-01-11T09:28:26.417Z,14.23
2018-01-11T09:30:54.333Z,15.35
2018-01-11T09:33:22.241Z,15.05
2018-01-11T09:35:50.163Z,18.35
2018-01-11T09:38:18.058Z,16.35
2018-01-11T09:40:45.968Z,16.98
2018-01-11T09:43:13.909Z,14.25
2018-01-11T09:45:41.829Z,17.02
2018-01-11T09:48:09.749Z,16.90
2018-01-11T09:50:37.670Z,16.20
2018-01-11T09:53:05.609Z,16.23
2018-01-11T09:55:33.521Z,17.95
2018-01-11T09:58:01.443Z,18.10
2018-01-11T10:00:29.355Z,17.23
2018-01-11T10:02:57.265Z,16.98
2018-01-11T10:05:25.218Z,17.90
2018-01-11T10:07:53.149Z,17.62
2018-01-11T10:10:21.068Z,17.75
2018-01-11T10:12:49.063Z,16.40
2018-01-11T10:15:16.989Z,17.48
2018-01-11T10:17:44.973Z,18.10
2018-01-11T10:20:12.945Z,17.85
2018-01-11T10:22:40.846Z,17.98
2018-01-11T10:25:08.780Z,17.75
2018-01-11T10:27:36.711Z,17.00
2018-01-11T10:30:04.715Z,19.33
2018-01-11T10:32:32.621Z,17.80
2018-01-11T10:35:00.548Z,17.40
2018-01-11T10:37:28.494Z,16.60
2018-01-11T10:39:56.401Z,17.52
2018-01-11T12:04:22.277Z,17.17
2018-01-11T12:06:50.172Z,18.37
2018-01-11T12:09:18.109Z,20.37
2018-01-11T12:11:46.030Z,17.62
2018-01-11T12:14:13.952Z,18.27
2018-01-11T12:16:41.873Z,18.77
2018-01-11T12:19:09.806Z,17.90
2018-01-11T12:21:37.733Z,18.45
2018-01-11T12:24:05.641Z,18.08
2018-01-11T12:26:33.573Z,18.50
2018-01-11T12:29:01.482Z,18.12
2018-01-11T12:31:29.387Z,18.50
2018-01-11T12:33:57.333Z,18.80
2018-01-11T12:36:25.324Z,17.95
2018-01-11T12:38:53.246Z,17.48
2018-01-11T12:41:21.259Z,18.02
2018-01-11T12:43:49.221Z,18.40
2018-01-11T12:46:17.163Z,19.10
2018-01-11T12:48:45.120Z,18.58
2018-01-11T12:51:13.123Z,19.23
2018-01-11T12:53:41.069Z,18.60
2018-01-11T12:56:08.993Z,19.40
2018-01-11T12:58:36.949Z,17.92
2018-01-11T13:01:04.877Z,16.75
2018-01-11T13:03:32.817Z,19.20
2018-01-11T13:06:00.747Z,18.12
2018-01-11T13:08:28.678Z,17.17
2018-01-11T13:10:56.759Z,18.67
2018-01-11T13:13:24.700Z,18.60
2018-01-11T13:15:52.658Z,16.87
2018-01-11T13:18:20.605Z,16.83
2018-01-11T13:20:48.527Z,15.57
2018-01-11T13:23:16.474Z,15.27
2018-01-11T13:25:44.409Z,15.80
2018-01-11T13:28:12.342Z,15.87
2018-01-11T13:30:40.322Z,13.10
2018-01-11T13:33:08.257Z,14.13
2018-01-11T13:35:36.178Z,13.83
2018-01-11T13:38:04.130Z,14.38
2018-01-11T13:40:32.056Z,13.15
2018-01-11T13:43:00.001Z,14.40
2018-01-11T13:45:27.915Z,14.27
2018-01-11T13:47:55.859Z,15.10
2018-01-11T13:50:23.793Z,14.73
2018-01-11T13:52:51.732Z,14.77
2018-01-11T13:55:19.686Z,12.73
2018-01-11T13:57:47.702Z,15.27
2018-01-11T14:00:15.645Z,14.07
2018-01-11T14:02:43.578Z,17.02
2018-01-11T14:05:11.496Z,14.37
2018-01-11T14:07:39.408Z,15.27
2018-01-11T14:10:07.335Z,15.17
2018-01-11T14:12:35.227Z,14.10
2018-01-11T14:15:03.169Z,14.67
2018-01-11T14:17:31.071Z,15.13
2018-01-11T14:19:58.987Z,15.70
2018-01-11T14:22:26.879Z,14.87
2018-01-11T14:24:54.821Z,14.33
2018-01-11T14:27:22.769Z,13.17
2018-01-11T14:29:50.688Z,15.83
2018-01-11T14:32:18.610Z,15.50
2018-01-11T14:34:46.523Z,16.42
2018-01-11T14:37:14.456Z,14.10
2018-01-11T14:39:42.593Z,13.60
2018-01-11T14:42:10.619Z,14.83
2018-01-11T14:44:38.628Z,14.37
2018-01-11T14:47:06.561Z,15.10
2018-01-11T14:49:34.514Z,13.63
2018-01-11T14:52:03.540Z,16.23
2018-01-11T14:54:31.436Z,15.40
2018-01-11T14:56:59.375Z,15.27
2018-01-11T14:59:27.294Z,16.65
2018-01-11T15:01:55.236Z,15.40
2018-01-11T15:04:23.156Z,16.60
2018-01-11T15:06:51.055Z,15.85
2018-01-11T15:09:18.997Z,16.90
2018-01-11T15:11:46.931Z,17.20
2018-01-11T15:14:14.834Z,17.98
2018-01-11T15:16:42.769Z,16.77
2018-01-11T15:19:10.687Z,17.20
2018-01-11T15:21:38.634Z,18.00
2018-01-11T15:24:06.547Z,19.05
2018-01-11T15:26:34.483Z,17.37
2018-01-11T15:29:02.404Z,15.88
2018-01-11T15:31:30.354Z,17.40
2018-01-11T15:33:58.630Z,19.05
2018-01-11T15:36:27.610Z,16.37
2018-01-11T15:38:55.538Z,16.73
2018-01-11T15:41:23.442Z,15.95
2018-01-11T15:43:51.343Z,16.90
2018-01-11T15:46:19.277Z,15.38
2018-01-11T15:48:47.212Z,16.50
2018-01-11T15:51:15.111Z,16.08
2018-01-11T15:53:43.048Z,16.90
2018-01-11T15:56:10.977Z,16.50
2018-01-11T15:58:38.888Z,16.85
2018-01-11T16:01:06.813Z,17.50
2018-01-11T16:03:34.748Z,15.48
2018-01-11T16:06:02.693Z,15.20
2018-01-11T16:08:30.627Z,17.25
2018-01-11T16:10:58.537Z,15.82
2018-01-11T16:13:26.473Z,16.00
2018-01-11T16:15:54.405Z,16.08
2018-01-11T16:18:23.347Z,16.35
2018-01-11T16:20:51.256Z,16.48
2018-01-11T16:23:19.183Z,16.02
2018-01-11T16:25:47.079Z,16.40
2018-01-11T16:28:14.984Z,14.05
2018-01-11T16:30:42.896Z,16.90
2018-01-11T16:33:10.820Z,17.05
2018-01-11T16:35:38.756Z,15.77
2018-01-11T16:38:06.700Z,14.23
2018-01-11T16:40:34.621Z,15.20
2018-01-11T16:43:02.573Z,16.98
2018-01-11T16:45:30.517Z,16.10
2018-01-11T16:47:58.489Z,16.20
2018-01-11T16:50:26.392Z,15.73
2018-01-11T16:52:54.328Z,15.23
2018-01-11T16:55:22.259Z,16.35
2018-01-11T16:57:50.420Z,15.38
2018-01-11T17:00:18.365Z,16.10
2018-01-11T17:02:46.302Z,16.52
2018-01-11T17:05:14.249Z,15.10
2018-01-11T17:07:42.184Z,15.40
2018-01-11T17:10:10.102Z,16.48
2018-01-11T17:12:38.010Z,16.30
2018-01-11T17:15:05.930Z,15.88
2018-01-11T17:17:33.836Z,15.98
2018-01-11T17:20:01.753Z,14.63
2018-01-11T17:22:29.687Z,15.77
2018-01-11T17:24:57.598Z,16.20
2018-01-11T17:27:25.638Z,15.98
2018-01-11T17:29:53.531Z,15.38
2018-01-11T17:32:21.462Z,15.48
2018-01-11T17:34:49.432Z,14.95
2018-01-11T17:37:17.323Z,16.35
2018-01-11T17:39:45.257Z,14.90
2018-01-11T17:42:13.208Z,15.75
2018-01-11T17:44:41.118Z,14.73
2018-01-11T17:47:09.073Z,15.75
2018-01-11T17:49:37.011Z,15.68
2018-01-11T17:52:04.934Z,16.00
2018-01-11T17:54:32.866Z,14.50
2018-01-11T17:57:00.790Z,14.20
2018-01-11T17:59:28.729Z,15.95
2018-01-11T18:01:56.643Z,15.48
2018-01-11T18:04:24.580Z,13.35
2018-01-11T18:06:52.506Z,14.35
2018-01-11T18:09:20.430Z,12.98
2018-01-11T18:11:48.353Z,11.48
2018-01-11T18:14:16.279Z,12.27
2018-01-11T18:16:44.209Z,11.57
2018-01-11T18:19:12.183Z,9.90
2018-01-11T18:21:40.650Z,9.75
2018-01-11T18:24:08.681Z,8.57
2018-01-11T18:26:36.626Z,9.63
2018-01-11T18:29:04.539Z,8.73
2018-01-11T18:31:33.605Z,8.63
2018-01-11T18:34:01.559Z,9.13
2018-01-11T18:36:29.489Z,9.88
2018-01-11T18:38:58.491Z,8.43
2018-01-11T18:41:26.408Z,9.45
2018-01-11T18:43:54.324Z,11.63
2018-01-11T18:46:22.253Z,12.48
2018-01-11T18:48:50.193Z,13.55
2018-01-11T18:51:18.147Z,13.77
2018-01-11T18:53:46.051Z,13.93
2018-01-11T18:56:13.992Z,12.55
2018-01-11T18:58:41.905Z,13.30
2018-01-11T19:01:09.833Z,11.25
2018-01-11T19:03:37.792Z,11.52
2018-01-11T19:06:05.715Z,11.82
2018-01-11T19:08:34.719Z,12.98
2018-01-11T19:11:02.656Z,15.05
2018-01-11T19:13:31.620Z,12.88
2018-01-11T19:15:59.526Z,15.05
2018-01-11T19:18:27.435Z,13.73
2018-01-11T19:20:55.392Z,12.88
2018-01-11T19:23:23.307Z,13.07
2018-01-11T19:25:51.226Z,13.45
2018-01-11T19:28:19.152Z,14.02
2018-01-11T19:30:47.046Z,13.48
2018-01-11T19:33:14.951Z,15.25
2018-01-11T19:35:42.957Z,13.40
2018-01-11T19:38:11.569Z,15.00
2018-01-11T19:40:39.504Z,13.98
2018-01-11T19:43:07.407Z,13.85
2018-01-11T19:45:35.315Z,14.32
2018-01-11T19:48:03.231Z,13.70
2018-01-11T19:50:31.145Z,14.85
2018-01-11T19:52:59.055Z,12.68
2018-01-11T19:55:26.958Z,13.00
2018-01-11T19:57:54.887Z,13.43
2018-01-11T20:00:23.811Z,13.68
2018-01-11T20:02:51.752Z,10.85
2018-01-11T20:05:20.642Z,9.55
2018-01-11T20:07:49.548Z,9.65
2018-01-11T20:10:17.623Z,9.63
2018-01-11T20:12:45.545Z,8.68
2018-01-11T20:15:13.452Z,9.20
2018-01-11T20:17:41.392Z,8.20
2018-01-11T20:20:09.316Z,8.75
2018-01-11T20:22:37.233Z,7.75
2018-01-11T20:25:05.180Z,8.63
2018-01-11T20:27:33.101Z,9.27
2018-01-11T20:30:01.029Z,9.20
2018-01-11T20:32:29.136Z,9.30
2018-01-11T20:34:57.047Z,9.20
2018-01-11T20:37:24.971Z,9.75
2018-01-11T20:39:52.898Z,8.65
2018-01-11T20:42:20.803Z,9.82
2018-01-11T20:44:48.733Z,9.00
2018-01-11T20:47:16.653Z,9.50
2018-01-11T20:49:44.550Z,9.35
2018-01-11T20:52:12.478Z,8.85
2018-01-11T20:54:40.407Z,9.50
2018-01-11T20:57:08.314Z,8.73
2018-01-11T20:59:37.316Z,9.18
2018-01-11T21:02:05.240Z,10.30
2018-01-11T21:04:33.166Z,11.35
2018-01-11T21:07:02.122Z,8.88
2018-01-11T21:09:30.027Z,8.75
2018-01-11T21:11:58.001Z,9.70
2018-01-11T21:14:25.937Z,9.40
2018-01-11T21:16:53.861Z,9.52
2018-01-11T21:19:21.769Z,9.82
2018-01-11T21:21:49.684Z,9.52
2018-01-11T21:24:17.591Z,8.63
2018-01-11T21:26:45.527Z,9.93
2018-01-11T21:29:13.438Z,9.93
2018-01-11T21:31:41.384Z,9.32
2018-01-11T21:34:09.304Z,9.70
2018-01-11T21:36:37.233Z,9.52
2018-01-11T21:39:05.138Z,8.48
2018-01-11T21:41:33.047Z,8.50
2018-01-11T21:44:00.967Z,9.98
2018-01-11T21:46:28.887Z,9.65
2018-01-11T21:48:56.787Z,8.13
2018-01-11T21:51:24.699Z,8.82
2018-01-11T21:53:52.628Z,9.13
2018-01-11T21:56:20.562Z,9.20
2018-01-11T21:58:48.480Z,9.70
2018-01-11T22:01:16.420Z,9.30
2018-01-11T22:03:44.344Z,9.63
2018-01-11T22:06:12.246Z,9.07
2018-01-11T22:08:40.172Z,8.68
2018-01-11T22:11:08.096Z,8.68
2018-01-11T22:13:36.011Z,10.32
2018-01-11T22:16:03.983Z,9.95
2018-01-11T22:18:31.884Z,8.50
2018-01-11T22:20:59.808Z,7.65
2018-01-11T22:23:27.740Z,9.25
2018-01-11T22:25:55.665Z,7.18
2018-01-11T22:28:23.582Z,7.60
2018-01-11T22:30:51.517Z,7.82
2018-01-11T22:33:19.422Z,8.98
2018-01-11T22:35:47.323Z,8.52
2018-01-11T22:38:15.219Z,8.15
2018-01-11T22:40:43.140Z,10.65
2018-01-11T22:43:11.046Z,8.20
2018-01-11T22:45:38.967Z,8.93
2018-01-11T22:48:06.925Z,10.13
2018-01-11T22:50:34.807Z,8.90
2018-01-11T22:53:03.818Z,10.00
2018-01-11T22:55:31.730Z,10.60
2018-01-11T22:57:59.653Z,9.77
2018-01-11T23:00:27.591Z,12.15
2018-01-11T23:02:55.523Z,9.15
2018-01-11T23:05:23.444Z,11.68
2018-01-11T23:07:51.363Z,9.88
2018-01-11T23:10:19.332Z,11.20
2018-01-11T23:12:48.253Z,10.65
2018-01-11T23:15:16.182Z,11.38
2018-01-11T23:17:44.151Z,11.57
2018-01-11T23:20:12.089Z,11.10
2018-01-11T23:22:40.011Z,10.80
2018-01-11T23:25:07.954Z,11.20
2018-01-11T23:27:35.911Z,11.63
2018-01-11T23:30:03.873Z,11.82
2018-01-11T23:32:31.796Z,11.25
2018-01-11T23:34:59.722Z,11.77
2018-01-11T23:37:27.638Z,11.35
2018-01-11T23:39:55.603Z,11.65
2018-01-11T23:42:23.528Z,10.90
2018-01-11T23:44:52.552Z,13.00
2018-01-11T23:47:20.467Z,12.27
2018-01-11T23:49:48.347Z,12.32
2018-01-11T23:52:16.419Z,12.60
2018-01-11T23:54:44.330Z,11.88
2018-01-11T23:57:12.227Z,12.40
2018-01-11T23:59:40.168Z,11.77
